Time;durP1;ratioP1;P1;durP2;ratioP2;P2;SDS_P1;SDS_P2;PMS_P1;PMS_P2;Temp;Humidity;BMP_temperature;BMP_pressure;BME280_temperature;BME280_humidity;BME280_pressure;Samples;Min_cycle;Max_cycle;Signal;HPM_P1;HPM_P2
2023/01/04 00:01:38;;;;;;;36.63;13.20;;;7.10;99.90;;;;;;5051511;28;20478;-61
2023/01/04 00:04:06;;;;;;;44.90;13.93;;;7.20;99.90;;;;;;5054818;28;20495;-60
2023/01/04 00:06:33;;;;;;;31.33;10.73;;;7.20;99.90;;;;;;5070639;28;20982;-60
2023/01/04 00:09:00;;;;;;;39.60;13.80;;;7.20;99.90;;;;;;5041232;28;21482;-61
2023/01/04 00:11:26;;;;;;;35.07;12.10;;;7.30;99.90;;;;;;5063659;28;20516;-60
2023/01/04 00:13:57;;;;;;;29.03;9.67;;;7.30;99.90;;;;;;5026665;28;21459;-61
2023/01/04 00:16:26;;;;;;;45.70;15.90;;;7.20;99.90;;;;;;5034431;28;20607;-60
2023/01/04 00:18:54;;;;;;;41.87;13.87;;;7.30;99.90;;;;;;5073735;28;20492;-60
2023/01/04 00:21:24;;;;;;;47.90;12.80;;;7.30;99.90;;;;;;5064737;28;20633;-60
2023/01/04 00:23:54;;;;;;;24.93;8.13;;;7.30;99.90;;;;;;5069864;27;20472;-60
2023/01/04 00:26:22;;;;;;;72.00;25.87;;;;;;;;;;5044563;27;20852;-61
2023/01/04 00:28:48;;;;;;;60.53;25.67;;;7.20;99.90;;;;;;5048265;28;20473;-60
2023/01/04 00:31:16;;;;;;;30.33;8.90;;;7.30;99.90;;;;;;5059208;27;20480;-60
2023/01/04 00:33:42;;;;;;;40.23;15.00;;;7.40;99.90;;;;;;5071475;27;20494;-60
2023/01/04 00:36:11;;;;;;;36.93;16.80;;;7.40;99.90;;;;;;5057710;28;20478;-60
2023/01/04 00:38:39;;;;;;;23.97;8.90;;;7.40;99.90;;;;;;5023697;28;20498;-60
2023/01/04 00:41:08;;;;;;;31.37;16.23;;;7.40;99.90;;;;;;5053071;28;20488;-60
2023/01/04 00:43:35;;;;;;;21.33;11.10;;;7.40;99.90;;;;;;5064644;28;20632;-60
2023/01/04 00:46:02;;;;;;;34.80;15.43;;;7.40;99.90;;;;;;5031954;28;20487;-60
2023/01/04 00:48:29;;;;;;;20.60;11.37;;;7.40;99.90;;;;;;5054657;28;20917;-60
2023/01/04 00:50:57;;;;;;;19.07;9.43;;;7.50;99.90;;;;;;5030070;28;20479;-60
2023/01/04 00:53:23;;;;;;;27.53;13.20;;;7.50;99.90;;;;;;5056104;28;20478;-60
2023/01/04 00:55:51;;;;;;;23.60;11.27;;;7.50;99.90;;;;;;5071062;28;20471;-60
2023/01/04 00:58:18;;;;;;;13.27;6.13;;;7.50;99.90;;;;;;5053777;28;20541;-60
2023/01/04 01:00:45;;;;;;;20.20;9.83;;;7.50;99.90;;;;;;5078096;28;20489;-60
2023/01/04 01:03:11;;;;;;;24.00;11.97;;;7.50;99.90;;;;;;5071165;28;20488;-60
2023/01/04 01:05:38;;;;;;;22.37;11.70;;;7.50;99.90;;;;;;5046985;28;20593;-61
2023/01/04 01:10:46;;;;;;;25.50;14.40;;;7.50;99.90;;;;;;5070040;28;20466;-60
2023/01/04 01:13:14;;;;;;;26.50;8.13;;;7.60;99.90;;;;;;5052227;28;21010;-60
2023/01/04 01:15:40;;;;;;;13.33;8.30;;;7.50;99.90;;;;;;5050999;28;20479;-60
2023/01/04 01:18:07;;;;;;;28.47;13.57;;;7.60;99.90;;;;;;5043659;28;22615;-60
2023/01/04 01:20:34;;;;;;;23.53;9.90;;;7.60;99.90;;;;;;5077461;28;21355;-60
2023/01/04 01:23:00;;;;;;;25.60;13.93;;;7.60;99.90;;;;;;5069586;28;20511;-60
2023/01/04 01:25:27;;;;;;;9.43;5.37;;;7.50;99.90;;;;;;5081500;28;20491;-60
2023/01/04 01:27:54;;;;;;;19.70;8.57;;;7.60;99.90;;;;;;5082651;28;20493;-60
2023/01/04 01:30:22;;;;;;;38.07;15.13;;;7.50;99.90;;;;;;5073422;28;20490;-61
2023/01/04 01:32:48;;;;;;;30.77;12.00;;;7.50;99.90;;;;;;5054809;28;20522;-60
2023/01/04 01:35:15;;;;;;;30.37;10.60;;;7.50;99.90;;;;;;5051405;28;20515;-61
2023/01/04 01:37:42;;;;;;;32.23;12.93;;;7.50;99.90;;;;;;5048949;28;20475;-60
2023/01/04 01:40:10;;;;;;;37.90;12.40;;;;;;;;;;5052005;28;20545;-60
2023/01/04 01:42:36;;;;;;;26.57;8.80;;;7.70;99.90;;;;;;5074603;28;20485;-60
2023/01/04 01:45:09;;;;;;;36.37;14.40;;;7.70;99.90;;;;;;5057749;28;20494;-61
2023/01/04 01:47:40;;;;;;;25.50;6.30;;;;;;;;;;5061927;28;20501;-61
2023/01/04 01:50:21;;;;;;;25.73;10.80;;;7.70;99.90;;;;;;5051820;28;20566;-61
2023/01/04 01:52:49;;;;;;;26.07;9.47;;;7.80;99.90;;;;;;5037966;28;20474;-60
2023/01/04 01:55:16;;;;;;;30.43;9.80;;;7.80;99.90;;;;;;5050768;28;20487;-61
2023/01/04 01:57:44;;;;;;;30.23;10.20;;;;;;;;;;5053944;28;20926;-61
2023/01/04 02:00:14;;;;;;;36.20;14.20;;;;;;;;;;5049992;28;20498;-61
2023/01/04 02:02:49;;;;;;;26.77;11.97;;;7.60;99.90;;;;;;5056347;28;20641;-61
2023/01/04 02:05:17;;;;;;;23.70;9.17;;;7.60;99.90;;;;;;5077326;28;21166;-60
2023/01/04 02:07:45;;;;;;;45.47;10.40;;;7.70;99.90;;;;;;5080740;28;21092;-61
2023/01/04 02:10:12;;;;;;;23.53;9.03;;;7.80;99.90;;;;;;5063679;28;21151;-61
2023/01/04 02:12:39;;;;;;;20.90;7.50;;;7.80;99.90;;;;;;5066686;28;21099;-61
2023/01/04 02:15:07;;;;;;;33.60;9.93;;;7.90;99.90;;;;;;5054552;28;20832;-61
2023/01/04 02:17:38;;;;;;;32.33;10.50;;;7.80;99.90;;;;;;5053114;28;20477;-61
2023/01/04 02:20:16;;;;;;;46.87;15.13;;;;;;;;;;5064237;28;20471;-60
2023/01/04 02:23:14;;;;;;;35.53;13.83;;;7.60;99.90;;;;;;5078063;28;20496;-61
2023/01/04 02:25:53;;;;;;;32.03;10.67;;;;;;;;;;5029405;28;20483;-60
2023/01/04 02:28:34;;;;;;;28.73;10.47;;;7.60;99.90;;;;;;5055948;28;21022;-60
2023/01/04 02:31:16;;;;;;;33.77;12.47;;;7.60;99.90;;;;;;5061836;28;20495;-60
2023/01/04 02:33:51;;;;;;;30.83;10.20;;;7.50;99.90;;;;;;5074136;28;20471;-61
2023/01/04 02:36:23;;;;;;;28.43;8.23;;;7.50;99.90;;;;;;5043132;28;20487;-61
2023/01/04 02:39:03;;;;;;;30.10;9.63;;;7.50;99.90;;;;;;5056496;28;20462;-61
2023/01/04 02:41:33;;;;;;;21.70;8.27;;;;;;;;;;5064353;28;20719;-60
2023/01/04 02:47:00;;;;;;;31.67;10.90;;;7.50;99.90;;;;;;5070798;28;20493;-61
2023/01/04 02:52:11;;;;;;;40.07;12.90;;;7.40;99.90;;;;;;5077295;28;20540;-60
2023/01/04 02:54:38;;;;;;;29.40;11.80;;;7.40;99.90;;;;;;5072587;28;20483;-60
2023/01/04 02:57:30;;;;;;;46.17;13.17;;;7.30;99.90;;;;;;5068318;28;20489;-61
2023/01/04 03:00:10;;;;;;;42.63;10.27;;;7.30;99.90;;;;;;5054889;28;20909;-60
2023/01/04 03:08:34;;;;;;;23.80;8.70;;;;;;;;;;5057081;28;20465;-60
2023/01/04 03:11:04;;;;;;;37.07;14.00;;;7.40;99.90;;;;;;5050164;28;20557;-60
2023/01/04 03:13:34;;;;;;;28.13;9.67;;;7.40;99.90;;;;;;5052845;28;20479;-60
2023/01/04 03:16:05;;;;;;;28.07;7.10;;;7.60;99.90;;;;;;5056786;28;20483;-60
2023/01/04 03:18:35;;;;;;;27.43;8.23;;;;;;;;;;5060006;28;20504;-60
2023/01/04 03:21:04;;;;;;;40.47;13.00;;;7.50;99.90;;;;;;5053003;28;21205;-60
2023/01/04 03:37:44;;;;;;;18.00;8.10;;;7.50;99.90;;;;;;5045469;28;20482;-61
2023/01/04 03:48:58;;;;;;;23.80;8.57;;;7.50;99.90;;;;;;5049016;28;20532;-61
2023/01/04 03:51:30;;;;;;;14.03;7.67;;;7.60;99.90;;;;;;5087333;28;20489;-61
2023/01/04 03:54:02;;;;;;;15.87;8.43;;;7.50;99.90;;;;;;5055123;28;20824;-61
2023/01/04 03:56:32;;;;;;;17.03;9.07;;;7.60;99.90;;;;;;5075855;28;20493;-60
2023/01/04 03:58:59;;;;;;;23.87;9.23;;;7.80;99.90;;;;;;5054887;28;20483;-60
2023/01/04 04:01:27;;;;;;;15.07;8.43;;;7.80;99.90;;;;;;5078855;28;20489;-60
2023/01/04 04:09:25;;;;;;;14.10;7.93;;;7.70;99.90;;;;;;5057129;28;20517;-60
2023/01/04 04:11:52;;;;;;;16.70;8.03;;;7.80;99.90;;;;;;5055934;28;20494;-60
2023/01/04 04:14:18;;;;;;;16.20;7.10;;;7.80;99.90;;;;;;5050889;28;20528;-60
2023/01/04 04:16:45;;;;;;;17.17;7.87;;;7.80;99.90;;;;;;5046272;28;20494;-60
2023/01/04 04:19:12;;;;;;;19.90;9.93;;;7.90;99.90;;;;;;5056379;28;20490;-61
2023/01/04 04:21:40;;;;;;;16.63;7.37;;;7.90;99.90;;;;;;5045688;28;20483;-60
2023/01/04 04:24:07;;;;;;;16.67;7.57;;;7.80;99.90;;;;;;5084400;28;20966;-61
2023/01/04 04:26:33;;;;;;;10.03;6.57;;;7.90;99.90;;;;;;5060515;28;20528;-60
2023/01/04 04:29:00;;;;;;;24.47;12.20;;;7.90;99.90;;;;;;5080014;28;20490;-61
2023/01/04 04:31:27;;;;;;;14.50;7.63;;;7.80;99.90;;;;;;5060953;28;20489;-61
2023/01/04 04:33:54;;;;;;;11.70;6.40;;;7.90;99.90;;;;;;5076200;28;20559;-61
2023/01/04 04:36:20;;;;;;;13.20;7.47;;;7.90;99.90;;;;;;5078404;28;21190;-61
2023/01/04 04:38:48;;;;;;;16.80;9.13;;;7.80;99.90;;;;;;5059230;28;20488;-61
2023/01/04 04:44:00;;;;;;;16.70;9.47;;;7.80;99.90;;;;;;5064968;28;20477;-61
2023/01/04 04:46:27;;;;;;;20.90;9.13;;;7.80;99.90;;;;;;5085422;28;20478;-61
2023/01/04 04:48:54;;;;;;;19.23;12.17;;;7.70;99.90;;;;;;5066332;28;20467;-61
2023/01/04 04:51:20;;;;;;;19.80;10.93;;;7.80;99.90;;;;;;5077681;28;20500;-61
2023/01/04 04:53:48;;;;;;;15.63;8.17;;;7.80;99.90;;;;;;5060808;28;20480;-61
2023/01/04 04:56:16;;;;;;;18.00;8.77;;;7.80;99.90;;;;;;5065282;28;20482;-61
2023/01/04 04:58:42;;;;;;;19.07;8.50;;;7.90;99.90;;;;;;5070965;28;20479;-61
2023/01/04 05:01:10;;;;;;;16.43;9.57;;;7.90;99.90;;;;;;5050451;28;20990;-62
2023/01/04 05:03:36;;;;;;;19.13;8.40;;;7.80;99.90;;;;;;5048324;28;21059;-61
2023/01/04 05:06:04;;;;;;;26.07;12.30;;;7.90;99.90;;;;;;5083615;28;20979;-61
2023/01/04 05:08:30;;;;;;;14.73;8.30;;;7.90;99.90;;;;;;5056297;28;20512;-61
2023/01/04 05:10:59;;;;;;;12.93;6.87;;;7.90;99.90;;;;;;5060350;28;20482;-61
2023/01/04 05:13:25;;;;;;;17.87;7.57;;;;;;;;;;5079512;28;20493;-60
2023/01/04 05:15:54;;;;;;;19.03;10.90;;;7.90;99.90;;;;;;5056472;28;21002;-60
2023/01/04 05:18:22;;;;;;;18.10;9.63;;;7.90;99.90;;;;;;5074035;28;20464;-60
2023/01/04 05:20:49;;;;;;;10.53;6.10;;;7.90;99.90;;;;;;5064610;28;20465;-61
2023/01/04 05:23:19;;;;;;;16.07;6.20;;;8.00;99.90;;;;;;5077239;28;20478;-61
2023/01/04 05:25:46;;;;;;;21.20;10.60;;;8.00;99.90;;;;;;5073147;28;21161;-60
2023/01/04 05:28:14;;;;;;;15.47;7.23;;;8.00;99.90;;;;;;5081023;28;20484;-60
2023/01/04 05:30:52;;;;;;;10.03;5.87;;;7.80;99.90;;;;;;5054138;28;20569;-61
2023/01/04 05:33:21;;;;;;;16.30;6.80;;;7.80;99.90;;;;;;5063230;28;20476;-61
2023/01/04 05:35:48;;;;;;;16.70;7.83;;;7.80;99.90;;;;;;5057814;28;20493;-61
2023/01/04 05:38:15;;;;;;;11.70;6.83;;;7.70;99.90;;;;;;5055706;28;20476;-62
2023/01/04 05:40:42;;;;;;;16.23;8.40;;;7.70;99.90;;;;;;5050105;28;20483;-62
2023/01/04 05:43:09;;;;;;;18.57;8.67;;;7.80;99.90;;;;;;5056764;28;20551;-62
2023/01/04 05:45:37;;;;;;;20.37;8.50;;;7.80;99.90;;;;;;5074028;28;20488;-62
2023/01/04 05:48:04;;;;;;;24.43;11.77;;;;;;;;;;5054114;28;20476;-61
2023/01/04 05:50:31;;;;;;;17.67;11.33;;;7.70;99.90;;;;;;5061713;28;20482;-61
2023/01/04 05:52:58;;;;;;;21.30;11.57;;;7.50;99.90;;;;;;5061833;28;20487;-61
2023/01/04 05:55:25;;;;;;;11.10;5.03;;;7.50;99.90;;;;;;5053263;28;20483;-61
2023/01/04 05:57:52;;;;;;;19.03;10.20;;;7.70;99.90;;;;;;5051982;28;20856;-61
2023/01/04 06:00:18;;;;;;;19.27;10.23;;;7.60;99.90;;;;;;5070640;28;21193;-60
2023/01/04 06:02:47;;;;;;;22.83;10.57;;;;;;;;;;5062344;28;20491;-61
2023/01/04 06:05:13;;;;;;;15.77;8.13;;;7.60;99.90;;;;;;5055499;28;20475;-61
2023/01/04 06:07:40;;;;;;;16.70;9.20;;;7.70;99.90;;;;;;5072646;28;20481;-60
2023/01/04 06:10:09;;;;;;;18.50;9.30;;;7.80;99.90;;;;;;5057439;28;20484;-60
2023/01/04 06:12:36;;;;;;;12.10;7.07;;;7.80;99.90;;;;;;5049938;28;20515;-60
2023/01/04 06:15:03;;;;;;;17.20;9.03;;;7.70;99.90;;;;;;5058985;28;20509;-60
2023/01/04 06:17:29;;;;;;;11.13;6.33;;;7.90;99.90;;;;;;5070438;28;21033;-60
2023/01/04 06:19:57;;;;;;;13.67;7.73;;;7.80;99.90;;;;;;5077342;28;20491;-60
2023/01/04 06:22:26;;;;;;;8.70;4.87;;;7.90;99.90;;;;;;5054235;28;20520;-61
2023/01/04 06:24:53;;;;;;;14.00;6.47;;;7.90;99.90;;;;;;5056842;28;20475;-60
2023/01/04 06:27:20;;;;;;;12.00;7.20;;;7.90;99.90;;;;;;5050989;28;20479;-61
2023/01/04 06:29:46;;;;;;;9.73;5.70;;;7.90;99.90;;;;;;5049735;28;20489;-61
2023/01/04 06:32:13;;;;;;;14.33;7.40;;;8.00;99.90;;;;;;5081451;28;20494;-61
2023/01/04 06:34:40;;;;;;;9.53;3.73;;;8.00;99.90;;;;;;5060030;28;20489;-62
2023/01/04 06:37:08;;;;;;;19.70;10.23;;;8.00;99.90;;;;;;5070410;28;20518;-61
2023/01/04 06:39:35;;;;;;;13.40;5.40;;;8.10;99.90;;;;;;5069053;28;20578;-62
2023/01/04 06:42:02;;;;;;;10.00;4.10;;;8.10;99.90;;;;;;5044219;28;20932;-61
2023/01/04 06:44:29;;;;;;;6.20;4.27;;;8.20;99.90;;;;;;5053675;28;20896;-61
2023/01/04 06:46:56;;;;;;;23.47;9.17;;;8.10;99.90;;;;;;5081070;28;20476;-61
2023/01/04 06:49:22;;;;;;;13.30;6.97;;;8.10;99.90;;;;;;5052554;28;20485;-60
2023/01/04 06:51:49;;;;;;;10.00;5.67;;;8.20;99.90;;;;;;5081769;28;20660;-62
2023/01/04 06:54:17;;;;;;;7.03;4.97;;;8.20;99.90;;;;;;5055863;28;20469;-61
2023/01/04 06:56:44;;;;;;;10.67;6.27;;;8.30;99.90;;;;;;5086674;28;20488;-61
2023/01/04 06:59:10;;;;;;;23.10;9.27;;;8.20;99.90;;;;;;5079006;28;20554;-61
2023/01/04 07:01:37;;;;;;;7.10;5.33;;;8.30;99.90;;;;;;5046996;28;20491;-61
2023/01/04 07:04:04;;;;;;;11.57;6.57;;;8.20;99.90;;;;;;5067775;28;20486;-62
2023/01/04 07:06:31;;;;;;;7.07;5.13;;;8.30;99.90;;;;;;5041864;28;20479;-61
2023/01/04 07:08:57;;;;;;;16.73;9.00;;;8.30;99.90;;;;;;5074677;28;20510;-62
2023/01/04 07:11:25;;;;;;;9.90;6.03;;;8.40;99.90;;;;;;5045465;28;20604;-62
2023/01/04 07:13:52;;;;;;;14.73;6.70;;;8.30;99.90;;;;;;5049956;28;21096;-62
2023/01/04 07:16:19;;;;;;;13.63;8.10;;;8.30;99.90;;;;;;5070748;28;20818;-62
2023/01/04 07:18:46;;;;;;;19.23;9.33;;;8.30;99.90;;;;;;5051153;28;20490;-61
2023/01/04 07:21:13;;;;;;;11.70;6.90;;;8.40;99.90;;;;;;5070471;28;20782;-61
2023/01/04 07:23:40;;;;;;;16.87;5.10;;;8.40;99.90;;;;;;5057229;28;20952;-61
2023/01/04 07:26:07;;;;;;;20.23;8.27;;;;;;;;;;5059011;28;20971;-62
2023/01/04 07:31:19;;;;;;;20.00;8.07;;;8.50;99.90;;;;;;5054759;28;20845;-61
2023/01/04 07:33:49;;;;;;;25.53;8.90;;;8.60;99.90;;;;;;5055388;28;20483;-62
2023/01/04 07:36:16;;;;;;;24.90;7.23;;;8.60;99.90;;;;;;5050362;28;20482;-62
2023/01/04 07:38:43;;;;;;;20.93;6.13;;;;;;;;;;5066178;28;20497;-62
2023/01/04 07:41:10;;;;;;;30.63;7.93;;;;;;;;;;5045888;28;20574;-62
2023/01/04 07:43:38;;;;;;;17.23;4.67;;;8.80;99.90;;;;;;5044415;28;20487;-62
2023/01/04 07:46:05;;;;;;;29.60;10.10;;;8.90;99.90;;;;;;5074420;28;20518;-61
2023/01/04 07:48:31;;;;;;;19.73;5.63;;;8.80;99.90;;;;;;5068278;28;20473;-61
2023/01/04 07:50:58;;;;;;;25.23;7.43;;;;;;;;;;5063552;28;20591;-62
2023/01/04 07:53:25;;;;;;;19.13;5.77;;;8.80;99.90;;;;;;5064863;28;20570;-61
2023/01/04 07:55:55;;;;;;;22.00;8.20;;;;;;;;;;5065438;28;21108;-61
2023/01/04 07:58:22;;;;;;;27.43;6.73;;;;;;;;;;5063541;28;21112;-62
2023/01/04 08:00:51;;;;;;;24.43;7.50;;;;;;;;;;5042522;28;20484;-61
2023/01/04 08:03:18;;;;;;;22.60;6.20;;;8.80;99.90;;;;;;5081788;28;20859;-61
2023/01/04 08:05:44;;;;;;;22.40;7.40;;;8.80;99.90;;;;;;5054080;28;20504;-61
2023/01/04 08:08:11;;;;;;;23.73;8.73;;;8.90;99.90;;;;;;5067965;28;20477;-61
2023/01/04 08:10:37;;;;;;;23.60;6.67;;;8.90;99.90;;;;;;5069098;28;20910;-61
2023/01/04 08:13:04;;;;;;;38.50;10.40;;;;;;;;;;5071198;28;20774;-62
2023/01/04 08:15:31;;;;;;;22.83;5.23;;;8.90;99.90;;;;;;5049232;28;20786;-61
2023/01/04 08:17:59;;;;;;;29.17;9.00;;;8.90;99.90;;;;;;5047364;28;20493;-60
2023/01/04 08:20:26;;;;;;;49.20;11.73;;;8.70;99.90;;;;;;5054605;28;20925;-61
2023/01/04 08:22:53;;;;;;;29.30;8.53;;;8.60;99.90;;;;;;5075753;28;20475;-61
2023/01/04 08:25:20;;;;;;;19.97;6.20;;;;;;;;;;5048646;28;20467;-62
2023/01/04 08:27:46;;;;;;;44.87;9.37;;;8.70;99.90;;;;;;5036771;28;20480;-61
2023/01/04 08:30:13;;;;;;;27.97;8.53;;;8.60;99.90;;;;;;5075365;28;20485;-61
2023/01/04 08:32:40;;;;;;;20.73;6.37;;;8.60;99.90;;;;;;5081799;28;20538;-60
2023/01/04 08:35:08;;;;;;;34.23;9.60;;;8.60;99.90;;;;;;5068458;28;20496;-61
2023/01/04 08:37:35;;;;;;;19.87;7.00;;;8.60;99.90;;;;;;5075312;28;20573;-60
2023/01/04 08:40:02;;;;;;;34.83;10.00;;;;;;;;;;5056340;28;20482;-61
2023/01/04 08:42:29;;;;;;;32.87;6.30;;;8.70;99.90;;;;;;5057247;28;20815;-60
2023/01/04 08:44:57;;;;;;;22.93;8.23;;;8.70;99.90;;;;;;5047405;28;20904;-60
2023/01/04 08:47:24;;;;;;;27.30;8.87;;;8.80;99.90;;;;;;5046541;28;20481;-60
2023/01/04 08:49:50;;;;;;;24.83;7.07;;;8.90;99.90;;;;;;5065167;28;20492;-61
2023/01/04 08:52:18;;;;;;;18.90;6.13;;;8.80;99.90;;;;;;5065954;28;20477;-60
2023/01/04 08:54:45;;;;;;;26.90;7.10;;;9.00;99.90;;;;;;5069000;28;20483;-60
2023/01/04 08:57:12;;;;;;;27.63;9.50;;;;;;;;;;5050801;28;20503;-60
2023/01/04 08:59:39;;;;;;;20.53;6.30;;;9.10;99.90;;;;;;5066281;28;21048;-60
2023/01/04 09:02:18;;;;;;;32.13;8.30;;;9.10;99.90;;;;;;5079928;28;21065;-61
2023/01/04 09:04:45;;;;;;;23.13;7.23;;;8.90;99.90;;;;;;5067420;28;20477;-60
2023/01/04 09:07:11;;;;;;;33.57;9.43;;;9.00;99.90;;;;;;5057057;28;20483;-60
2023/01/04 09:09:40;;;;;;;20.63;5.10;;;;;;;;;;5051670;28;20522;-60
2023/01/04 09:12:07;;;;;;;34.50;9.80;;;;;;;;;;5054275;28;20479;-60
2023/01/04 09:14:35;;;;;;;24.90;7.07;;;;;;;;;;5057728;28;20498;-60
2023/01/04 09:17:02;;;;;;;28.93;8.40;;;9.00;99.90;;;;;;5046145;28;20472;-60
2023/01/04 09:19:28;;;;;;;17.47;5.57;;;9.00;99.90;;;;;;5056462;28;20521;-60
2023/01/04 09:21:55;;;;;;;14.00;5.20;;;9.00;99.90;;;;;;5053871;28;20483;-60
2023/01/04 09:24:22;;;;;;;24.60;8.03;;;;;;;;;;5059744;28;21198;-61
2023/01/04 09:26:50;;;;;;;26.23;5.90;;;9.10;99.90;;;;;;5051927;28;21006;-60
2023/01/04 09:29:17;;;;;;;18.87;6.87;;;9.00;99.90;;;;;;5052572;28;20487;-60
2023/01/04 09:31:44;;;;;;;25.50;6.90;;;9.00;99.90;;;;;;5053171;28;20476;-60
2023/01/04 09:34:11;;;;;;;28.80;9.00;;;;;;;;;;5048163;28;20490;-60
2023/01/04 09:36:38;;;;;;;14.40;5.13;;;8.90;99.90;;;;;;5059178;28;20479;-61
2023/01/04 09:39:05;;;;;;;28.43;10.27;;;;;;;;;;5057918;28;20915;-61
2023/01/04 09:41:36;;;;;;;17.77;6.20;;;9.00;99.90;;;;;;5057344;28;20479;-61
2023/01/04 09:44:17;;;;;;;35.00;7.10;;;9.00;99.90;;;;;;5056373;28;20486;-61
2023/01/04 09:46:49;;;;;;;24.53;8.07;;;9.00;99.90;;;;;;5059283;28;20475;-61
2023/01/04 09:49:20;;;;;;;22.37;4.70;;;9.00;99.90;;;;;;5070649;28;20939;-61
2023/01/04 09:51:56;;;;;;;40.50;7.50;;;9.10;99.90;;;;;;5061453;28;20475;-60
2023/01/04 09:54:28;;;;;;;22.73;5.93;;;9.10;99.90;;;;;;5057665;28;20483;-61
2023/01/04 09:56:58;;;;;;;23.00;7.90;;;9.00;99.90;;;;;;5058651;28;20471;-61
2023/01/04 09:59:30;;;;;;;27.43;7.93;;;9.00;99.90;;;;;;5059211;28;20861;-61
2023/01/04 10:02:00;;;;;;;18.97;6.97;;;;;;;;;;5051079;28;20558;-61
2023/01/04 10:04:36;;;;;;;28.07;7.33;;;9.10;99.90;;;;;;5056713;28;20641;-61
2023/01/04 10:07:02;;;;;;;33.07;10.30;;;9.10;99.90;;;;;;5058351;28;20572;-61
2023/01/04 10:09:29;;;;;;;30.30;7.50;;;9.10;99.90;;;;;;5057903;28;20475;-60
2023/01/04 10:12:14;;;;;;;23.63;6.73;;;9.10;99.90;;;;;;5056128;28;20479;-61
2023/01/04 10:14:59;;;;;;;17.60;4.87;;;9.10;99.90;;;;;;5056625;28;20999;-61
2023/01/04 10:17:40;;;;;;;25.93;7.00;;;9.10;99.90;;;;;;5045258;28;20475;-61
2023/01/04 10:20:37;;;;;;;21.43;8.03;;;9.10;99.90;;;;;;5061114;28;20484;-61
2023/01/04 10:23:13;;;;;;;29.13;11.33;;;9.10;99.90;;;;;;5062096;28;20470;-60
2023/01/04 10:25:46;;;;;;;17.60;6.30;;;9.00;99.90;;;;;;5057351;28;20488;-61
2023/01/04 10:28:31;;;;;;;25.63;9.27;;;9.10;99.90;;;;;;5054939;28;20999;-60
2023/01/04 10:31:06;;;;;;;21.37;7.40;;;9.20;99.90;;;;;;5068440;28;20869;-60
2023/01/04 10:33:42;;;;;;;12.20;3.43;;;9.20;99.90;;;;;;5060848;28;20535;-60
2023/01/04 10:36:17;;;;;;;30.67;10.23;;;9.20;99.90;;;;;;5056966;28;20482;-61
2023/01/04 10:38:45;;;;;;;16.30;5.80;;;9.30;99.90;;;;;;5056232;28;20546;-60
2023/01/04 10:41:14;;;;;;;28.47;8.53;;;;;;;;;;5072182;28;21149;-60
2023/01/04 10:43:48;;;;;;;20.83;7.00;;;9.30;99.90;;;;;;5043825;28;20479;-61
2023/01/04 10:46:21;;;;;;;30.13;8.63;;;9.20;99.90;;;;;;5064419;28;20487;-61
2023/01/04 10:48:54;;;;;;;30.73;8.23;;;9.30;99.90;;;;;;5046444;28;20481;-61
2023/01/04 10:51:27;;;;;;;15.77;5.20;;;9.30;99.90;;;;;;5079623;28;20486;-61
2023/01/04 10:53:57;;;;;;;26.97;7.53;;;9.30;99.90;;;;;;5071182;28;20549;-61
2023/01/04 10:56:30;;;;;;;21.53;8.13;;;9.30;99.90;;;;;;5040874;28;20853;-61
2023/01/04 10:59:00;;;;;;;21.37;5.60;;;9.40;99.90;;;;;;5072498;28;20481;-60
2023/01/04 11:01:30;;;;;;;28.47;7.20;;;;;;;;;;5050909;28;20491;-61
2023/01/04 11:04:02;;;;;;;44.70;11.73;;;9.40;99.90;;;;;;5049821;28;20483;-61
2023/01/04 11:06:33;;;;;;;32.37;7.07;;;9.30;99.90;;;;;;5060374;28;20848;-61
2023/01/04 11:09:04;;;;;;;27.67;10.70;;;9.30;99.90;;;;;;5053924;28;20480;-61
2023/01/04 11:11:33;;;;;;;19.23;5.97;;;;;;;;;;5058299;28;20473;-60
2023/01/04 11:14:00;;;;;;;29.57;11.17;;;9.40;99.90;;;;;;5042937;28;20482;-61
2023/01/04 11:16:30;;;;;;;20.17;6.77;;;9.40;99.90;;;;;;5054220;28;20499;-61
2023/01/04 11:18:58;;;;;;;20.40;6.20;;;9.50;99.90;;;;;;5051133;28;20498;-61
2023/01/04 11:21:27;;;;;;;17.60;6.97;;;;;;;;;;5065830;28;20886;-59
2023/01/04 11:23:57;;;;;;;30.73;10.00;;;9.50;99.90;;;;;;5048597;28;21048;-61
2023/01/04 11:26:30;;;;;;;26.73;6.00;;;9.60;99.90;;;;;;5047395;28;20490;-60
2023/01/04 11:29:00;;;;;;;22.47;8.87;;;9.50;99.90;;;;;;5069091;28;20855;-60
2023/01/04 11:31:35;;;;;;;29.93;6.90;;;9.40;99.90;;;;;;5049986;28;20842;-60
2023/01/04 11:34:04;;;;;;;32.90;9.83;;;9.50;99.90;;;;;;5054774;28;20484;-60
2023/01/04 11:36:36;;;;;;;26.27;6.60;;;9.50;99.90;;;;;;5067889;28;20485;-60
2023/01/04 11:39:04;;;;;;;28.03;8.73;;;9.50;99.90;;;;;;5058788;28;20483;-60
2023/01/04 11:41:31;;;;;;;23.10;7.07;;;9.50;99.90;;;;;;5049029;28;20483;-60
2023/01/04 11:44:00;;;;;;;19.23;6.77;;;9.50;99.90;;;;;;5050515;28;20479;-60
2023/01/04 11:46:29;;;;;;;25.23;7.27;;;;;;;;;;5060784;28;20473;-60
2023/01/04 11:48:55;;;;;;;30.23;6.80;;;9.70;99.90;;;;;;5058050;28;21307;-62
2023/01/04 11:51:35;;;;;;;25.57;8.63;;;;;;;;;;5049858;28;20483;-61
2023/01/04 11:54:05;;;;;;;35.07;11.83;;;9.60;99.90;;;;;;5033531;28;20475;-61
2023/01/04 11:56:35;;;;;;;22.10;5.60;;;9.60;99.90;;;;;;5054262;28;20483;-61
2023/01/04 11:59:03;;;;;;;24.37;6.93;;;;;;;;;;5042687;28;20486;-61
2023/01/04 12:01:33;;;;;;;21.83;7.33;;;9.80;99.90;;;;;;5067705;28;20843;-61
2023/01/04 12:04:00;;;;;;;22.83;7.93;;;9.60;99.90;;;;;;5054463;28;20467;-61
2023/01/04 12:06:36;;;;;;;15.13;6.43;;;9.60;99.90;;;;;;5062448;28;20485;-61
2023/01/04 12:09:03;;;;;;;29.80;9.70;;;9.70;99.90;;;;;;5073758;28;20481;-61
2023/01/04 12:11:33;;;;;;;25.47;5.10;;;9.80;99.90;;;;;;5060466;28;20486;-61
2023/01/04 12:14:00;;;;;;;30.90;8.43;;;;;;;;;;5065736;28;20466;-62
2023/01/04 12:16:34;;;;;;;26.83;7.73;;;;;;;;;;5075549;28;20477;-61
2023/01/04 12:19:04;;;;;;;19.00;6.70;;;9.60;99.90;;;;;;5064449;28;20481;-61
2023/01/04 12:21:34;;;;;;;26.40;7.53;;;9.60;99.90;;;;;;5069926;28;20544;-61
2023/01/04 12:24:06;;;;;;;23.43;7.63;;;9.70;99.90;;;;;;5080930;28;21121;-61
2023/01/04 12:26:39;;;;;;;20.33;5.30;;;9.60;99.90;;;;;;5077404;27;21038;-61
2023/01/04 12:29:24;;;;;;;33.33;8.03;;;;;;;;;;5060641;28;20526;-61
2023/01/04 12:31:52;;;;;;;21.00;6.80;;;9.70;99.90;;;;;;5071152;28;20485;-62
2023/01/04 12:34:44;;;;;;;27.67;7.20;;;9.80;99.90;;;;;;5059160;28;21279;-61
2023/01/04 12:37:11;;;;;;;30.93;9.03;;;;;;;;;;5047135;28;22386;-61
2023/01/04 12:39:42;;;;;;;24.17;6.77;;;9.60;99.90;;;;;;5075908;28;20991;-61
2023/01/04 12:42:14;;;;;;;19.80;8.13;;;9.60;99.90;;;;;;5053947;28;20471;-61
2023/01/04 12:45:15;;;;;;;16.80;5.97;;;9.60;99.90;;;;;;5046248;28;20987;-61
2023/01/04 12:50:31;;;;;;;28.20;7.40;;;9.80;99.90;;;;;;5063954;28;20620;-61
2023/01/04 12:53:03;;;;;;;21.17;7.77;;;9.80;99.90;;;;;;5057739;28;20490;-61
2023/01/04 12:55:58;;;;;;;23.63;6.20;;;;;;;;;;5074708;28;20493;-60
2023/01/04 12:59:06;;;;;;;24.17;7.30;;;9.80;99.90;;;;;;5064267;28;20566;-61
2023/01/04 13:01:33;;;;;;;13.33;4.90;;;9.80;99.90;;;;;;5045550;28;20533;-60
2023/01/04 13:04:02;;;;;;;31.00;8.00;;;9.80;99.90;;;;;;5047944;28;20482;-62
2023/01/04 13:06:36;;;;;;;34.87;8.47;;;9.90;99.90;;;;;;5061780;28;21016;-61
2023/01/04 13:09:09;;;;;;;23.60;7.60;;;9.90;99.90;;;;;;5053642;28;20491;-61
2023/01/04 13:12:03;;;;;;;17.57;6.00;;;;;;;;;;5057814;28;20481;-60
2023/01/04 13:14:36;;;;;;;18.40;4.33;;;9.90;99.90;;;;;;5011756;28;20994;-61
2023/01/04 13:17:17;;;;;;;26.80;9.20;;;9.80;99.90;;;;;;5070297;28;20517;-61
2023/01/04 13:19:45;;;;;;;24.33;6.57;;;9.90;99.90;;;;;;5074962;28;20482;-61
2023/01/04 13:22:20;;;;;;;24.13;8.83;;;9.80;99.90;;;;;;5044404;28;20479;-61
2023/01/04 13:24:49;;;;;;;36.43;5.90;;;9.80;99.90;;;;;;5063179;28;20488;-61
2023/01/04 13:27:18;;;;;;;25.80;7.73;;;9.80;99.90;;;;;;5070936;28;21118;-61
2023/01/04 13:29:45;;;;;;;21.30;6.00;;;9.90;99.90;;;;;;5056005;28;21225;-61
2023/01/04 13:32:15;;;;;;;31.47;8.33;;;9.80;99.90;;;;;;5065836;28;21017;-61
2023/01/04 13:34:50;;;;;;;11.33;5.20;;;9.80;99.90;;;;;;5051894;28;20502;-61
2023/01/04 13:37:28;;;;;;;27.17;7.10;;;9.90;99.90;;;;;;5067030;28;20558;-61
2023/01/04 13:40:21;;;;;;;38.00;9.33;;;9.90;99.90;;;;;;5071304;28;20894;-61
2023/01/04 13:42:51;;;;;;;16.67;7.17;;;9.90;99.90;;;;;;5047569;28;21140;-60
2023/01/04 13:45:33;;;;;;;10.37;4.80;;;9.90;99.90;;;;;;5069608;28;20447;-61
2023/01/04 13:48:03;;;;;;;26.13;11.13;;;9.70;99.90;;;;;;5065189;28;20477;-61
2023/01/04 13:50:33;;;;;;;22.90;9.37;;;9.60;99.90;;;;;;5061731;28;20470;-61
2023/01/04 13:53:02;;;;;;;21.23;9.83;;;9.80;99.90;;;;;;5042094;28;21114;-62
2023/01/04 13:55:30;;;;;;;17.20;5.50;;;9.70;99.90;;;;;;5068827;28;20488;-61
2023/01/04 13:57:59;;;;;;;17.03;7.83;;;9.60;99.90;;;;;;5046704;28;20491;-61
2023/01/04 14:00:31;;;;;;;26.87;11.83;;;12.30;99.90;;;;;;5054709;28;20502;-61
2023/01/04 14:03:17;;;;;;;15.20;7.70;;;9.60;99.90;;;;;;5062443;28;20484;-62